Time;durP1;ratioP1;P1;durP2;ratioP2;P2;SDS_P1;SDS_P2;PMS_P1;PMS_P2;Temp;Humidity;BMP_temperature;BMP_pressure;BME280_temperature;BME280_humidity;BME280_pressure;Samples;Min_cycle;Max_cycle;Signal;HPM_P1;HPM_P2
2022/07/22 00:01:24;;;;;;;11.50;4.17;;;-6.10;99.90;;;;;;5025921;28;20251;-68
2022/07/22 00:03:50;;;;;;;12.83;5.10;;;-8.00;99.90;;;;;;5027083;28;20181;-68
2022/07/22 00:06:15;;;;;;;7.97;3.70;;;-5.30;99.90;;;;;;5036258;28;20180;-75
2022/07/22 00:08:41;;;;;;;7.80;4.40;;;-6.20;99.90;;;;;;5036416;28;20200;-71
2022/07/22 00:11:07;;;;;;;11.93;4.27;;;-6.70;99.90;;;;;;5036611;28;20165;-76
2022/07/22 00:13:33;;;;;;;11.80;3.93;;;-7.50;99.90;;;;;;5025723;28;20591;-75
2022/07/22 00:15:59;;;;;;;9.97;2.87;;;-7.80;99.90;;;;;;5027642;28;20581;-71
2022/07/22 00:18:25;;;;;;;10.33;3.70;;;-8.70;99.90;;;;;;5025995;28;20574;-73
2022/07/22 00:20:51;;;;;;;9.97;4.10;;;-9.40;99.90;;;;;;5036089;28;20584;-74
2022/07/22 00:23:17;;;;;;;11.07;4.00;;;-5.90;99.90;;;;;;5036265;28;20179;-76
2022/07/22 00:25:43;;;;;;;6.27;3.40;;;-7.80;99.90;;;;;;5036180;28;20181;-73
2022/07/22 00:28:08;;;;;;;12.17;4.43;;;-8.90;99.90;;;;;;5026170;28;20203;-75
2022/07/22 00:30:34;;;;;;;12.03;5.57;;;-8.80;99.90;;;;;;5027100;28;20193;-73
2022/07/22 00:33:00;;;;;;;11.57;4.73;;;-7.90;99.90;;;;;;5036056;28;20576;-73
2022/07/22 00:35:26;;;;;;;9.27;4.53;;;-9.00;99.90;;;;;;5035715;28;20218;-73
2022/07/22 00:37:52;;;;;;;9.57;4.63;;;-8.70;99.90;;;;;;5036301;28;20181;-77
2022/07/22 00:40:18;;;;;;;11.20;4.97;;;-11.20;99.90;;;;;;5034667;28;20192;-74
2022/07/22 00:42:43;;;;;;;4.83;4.23;;;-9.80;99.90;;;;;;5026889;28;20179;-75
2022/07/22 00:45:10;;;;;;;13.80;4.97;;;-9.80;99.90;;;;;;5025857;28;20203;-73
2022/07/22 00:47:35;;;;;;;7.33;3.83;;;-10.90;99.90;;;;;;5035886;28;20197;-74
2022/07/22 00:50:02;;;;;;;6.83;4.30;;;-12.10;99.90;;;;;;5034343;28;20230;-71
2022/07/22 00:52:28;;;;;;;7.40;4.90;;;-11.40;99.90;;;;;;5035967;28;20184;-71
2022/07/22 00:54:55;;;;;;;7.73;4.67;;;-10.80;99.90;;;;;;5034730;28;20176;-76
2022/07/22 00:57:21;;;;;;;8.33;6.10;;;-11.90;99.90;;;;;;5035708;28;20169;-75
2022/07/22 00:59:47;;;;;;;8.97;5.57;;;-9.50;99.90;;;;;;5035777;28;20183;-73
2022/07/22 01:02:13;;;;;;;10.37;5.97;;;-9.70;99.90;;;;;;5035751;28;20169;-75
2022/07/22 01:04:39;;;;;;;9.33;5.43;;;-8.80;99.90;;;;;;5035472;28;20184;-74
2022/07/22 01:07:05;;;;;;;9.47;4.83;;;-9.20;99.90;;;;;;5035575;28;20227;-75
2022/07/22 01:09:31;;;;;;;12.37;5.67;;;-9.70;99.90;;;;;;5035671;28;20576;-75
2022/07/22 01:11:57;;;;;;;8.63;4.67;;;-8.90;99.90;;;;;;5025141;28;20169;-76
2022/07/22 01:14:22;;;;;;;6.37;4.13;;;-8.20;99.90;;;;;;5026623;28;20176;-75
2022/07/22 01:16:48;;;;;;;12.20;6.97;;;-7.50;99.90;;;;;;5025129;28;20581;-74
2022/07/22 01:19:14;;;;;;;13.20;5.03;;;-6.50;99.90;;;;;;5035161;28;20172;-74
2022/07/22 01:21:39;;;;;;;12.50;5.07;;;-6.70;99.90;;;;;;5035443;28;20188;-75
2022/07/22 01:24:06;;;;;;;7.53;4.93;;;-8.20;99.90;;;;;;5035486;28;20176;-69
2022/07/22 01:26:33;;;;;;;9.57;4.87;;;-8.60;99.90;;;;;;5025451;28;20180;-75
2022/07/22 01:28:59;;;;;;;7.37;4.30;;;-6.70;99.90;;;;;;5026536;28;20197;-71
2022/07/22 01:31:25;;;;;;;10.17;4.97;;;-10.10;99.90;;;;;;5032567;28;20175;-68
2022/07/22 01:33:51;;;;;;;8.23;4.30;;;-8.90;99.90;;;;;;5035231;28;20184;-70
2022/07/22 01:36:18;;;;;;;6.60;4.40;;;-9.30;99.90;;;;;;5024953;28;20169;-69
2022/07/22 01:38:44;;;;;;;10.40;5.20;;;-9.40;99.90;;;;;;5026359;28;20259;-67
2022/07/22 01:41:10;;;;;;;20.43;6.50;;;-9.40;99.90;;;;;;5024775;28;20588;-72
2022/07/22 01:43:35;;;;;;;10.97;4.77;;;-9.40;99.90;;;;;;5034279;28;20172;-74
2022/07/22 01:46:02;;;;;;;6.97;4.27;;;-8.50;99.90;;;;;;5035197;28;20622;-73
2022/07/22 01:48:28;;;;;;;11.57;4.37;;;-8.90;99.90;;;;;;5033676;28;20193;-69
2022/07/22 01:50:54;;;;;;;11.53;4.63;;;-8.10;99.90;;;;;;5025224;28;20319;-67
2022/07/22 01:53:20;;;;;;;6.80;3.53;;;-7.90;99.90;;;;;;5025946;28;20173;-74
2022/07/22 01:55:46;;;;;;;7.23;4.50;;;-7.60;99.90;;;;;;5023074;28;20181;-73
2022/07/22 01:58:11;;;;;;;11.57;5.50;;;-8.50;99.90;;;;;;5035220;28;20489;-71
2022/07/22 02:00:37;;;;;;;4.00;3.63;;;-8.70;99.90;;;;;;5034097;28;20176;-74
2022/07/22 02:03:04;;;;;;;5.80;3.43;;;-7.60;99.90;;;;;;5023780;28;20458;-69
2022/07/22 02:05:30;;;;;;;4.97;3.57;;;-7.90;99.90;;;;;;5035185;28;20200;-69
2022/07/22 02:08:04;;;;;;;6.90;3.33;;;-8.20;99.90;;;;;;5034998;28;20203;-70
2022/07/22 02:10:29;;;;;;;6.03;3.50;;;-7.50;99.90;;;;;;5032681;28;20668;-70
2022/07/22 02:12:56;;;;;;;4.67;3.90;;;-6.80;99.90;;;;;;5035146;28;20200;-72
2022/07/22 02:15:22;;;;;;;4.27;3.43;;;-8.30;99.90;;;;;;5025388;28;20588;-72
2022/07/22 02:17:48;;;;;;;6.13;4.30;;;-8.90;99.90;;;;;;5036015;28;20172;-69
2022/07/22 02:20:14;;;;;;;5.77;3.63;;;-7.80;99.90;;;;;;5038878;28;20176;-67
2022/07/22 02:22:40;;;;;;;6.60;4.47;;;-8.40;99.90;;;;;;5028075;28;20260;-71
2022/07/22 02:25:06;;;;;;;6.33;4.30;;;-7.50;99.90;;;;;;5029608;28;20165;-69
2022/07/22 02:27:32;;;;;;;4.90;3.60;;;-7.60;99.90;;;;;;5027984;28;20691;-73
2022/07/22 02:29:58;;;;;;;7.03;3.73;;;-7.30;99.90;;;;;;5028198;28;20252;-71
2022/07/22 02:32:24;;;;;;;8.43;4.10;;;-6.90;99.90;;;;;;5029444;28;20177;-68
2022/07/22 02:34:49;;;;;;;13.07;4.37;;;-8.50;99.90;;;;;;5035794;28;20173;-71
2022/07/22 02:37:15;;;;;;;5.40;3.83;;;-9.10;99.90;;;;;;5038200;28;20645;-68
2022/07/22 02:39:41;;;;;;;10.13;4.20;;;-9.40;99.90;;;;;;5037117;28;20220;-70
2022/07/22 02:42:07;;;;;;;7.93;3.57;;;-10.10;99.90;;;;;;5027211;28;20173;-69
2022/07/22 02:44:33;;;;;;;6.07;4.23;;;-9.50;99.90;;;;;;5028644;28;20521;-72
2022/07/22 02:46:58;;;;;;;5.83;3.27;;;-10.40;99.90;;;;;;5027117;28;20181;-72
2022/07/22 02:49:24;;;;;;;6.67;3.53;;;-9.90;99.90;;;;;;5038271;28;20173;-71
2022/07/22 02:51:50;;;;;;;4.10;3.07;;;-9.40;99.90;;;;;;5037979;28;20176;-70
2022/07/22 02:54:15;;;;;;;4.23;3.80;;;-10.30;99.90;;;;;;5038095;28;20227;-68
2022/07/22 02:56:41;;;;;;;5.27;3.10;;;-9.50;99.90;;;;;;5027925;28;20259;-69
2022/07/22 02:59:07;;;;;;;5.33;3.50;;;-10.00;99.90;;;;;;5026491;28;20179;-72
2022/07/22 03:01:32;;;;;;;4.40;3.70;;;-10.40;99.90;;;;;;5038308;28;20256;-73
2022/07/22 03:03:58;;;;;;;9.73;3.53;;;-10.00;99.90;;;;;;5037039;28;20185;-73
2022/07/22 03:06:24;;;;;;;6.03;3.40;;;-9.30;99.90;;;;;;5038051;28;20169;-68
2022/07/22 03:08:50;;;;;;;5.63;3.43;;;-9.40;99.90;;;;;;5037883;28;20254;-71
2022/07/22 03:11:15;;;;;;;8.00;4.40;;;-9.20;99.90;;;;;;5037822;28;20224;-74
2022/07/22 03:13:41;;;;;;;6.80;3.83;;;-9.70;99.90;;;;;;5027596;28;20180;-72
2022/07/22 03:16:07;;;;;;;6.50;4.07;;;-10.20;99.90;;;;;;5029037;28;20172;-70
2022/07/22 03:18:34;;;;;;;5.07;2.97;;;-9.40;99.90;;;;;;5037606;28;20176;-73
2022/07/22 03:21:00;;;;;;;8.43;4.60;;;-9.60;99.90;;;;;;5027964;28;20173;-75
2022/07/22 03:23:26;;;;;;;6.83;3.70;;;-9.90;99.90;;;;;;5028149;28;20612;-75
2022/07/22 03:25:51;;;;;;;6.77;3.07;;;-8.50;99.90;;;;;;5036999;28;20177;-74
2022/07/22 03:28:17;;;;;;;3.83;3.20;;;-9.50;99.90;;;;;;5036358;28;20200;-75
2022/07/22 03:30:43;;;;;;;6.10;3.97;;;-8.90;99.90;;;;;;5037226;28;20183;-72
2022/07/22 03:33:09;;;;;;;5.20;3.10;;;-8.80;99.90;;;;;;5026309;28;20178;-76
2022/07/22 03:35:34;;;;;;;5.23;3.60;;;-9.30;99.90;;;;;;5028001;28;20481;-73
2022/07/22 03:38:01;;;;;;;7.73;3.53;;;-8.10;99.90;;;;;;5027014;28;20182;-73
2022/07/22 03:40:27;;;;;;;7.10;3.33;;;-7.90;99.90;;;;;;5026307;28;20180;-76
2022/07/22 03:42:53;;;;;;;7.77;3.73;;;-8.30;99.90;;;;;;5027636;28;20199;-76
2022/07/22 03:45:19;;;;;;;6.57;4.27;;;-8.70;99.90;;;;;;5026510;28;20299;-75
2022/07/22 03:47:45;;;;;;;10.37;2.90;;;-6.40;99.90;;;;;;5036947;28;20204;-75
2022/07/22 03:50:10;;;;;;;12.37;4.77;;;-6.20;99.90;;;;;;5037030;28;20173;-73
2022/07/22 03:52:37;;;;;;;3.90;3.47;;;-6.50;99.90;;;;;;5037019;28;20216;-74
2022/07/22 03:55:05;;;;;;;9.50;4.17;;;-4.90;99.90;;;;;;5036693;28;20580;-74
2022/07/22 03:57:31;;;;;;;5.10;3.77;;;-3.30;99.90;;;;;;5025510;28;20181;-76
2022/07/22 03:59:56;;;;;;;5.67;2.93;;;-3.10;99.90;;;;;;5027834;28;20481;-68
2022/07/22 04:02:22;;;;;;;13.70;4.07;;;-1.50;99.90;;;;;;5026690;28;20621;-69
2022/07/22 04:04:48;;;;;;;5.87;4.20;;;13.00;99.90;;;;;;5036495;28;20183;-71
2022/07/22 04:07:14;;;;;;;4.97;3.43;;;12.90;99.90;;;;;;5036517;28;20212;-67
2022/07/22 04:09:39;;;;;;;3.80;3.10;;;12.90;99.90;;;;;;5027089;28;20200;-68
2022/07/22 04:12:05;;;;;;;13.67;4.47;;;12.90;99.90;;;;;;5026980;28;20169;-69
2022/07/22 04:14:31;;;;;;;9.50;4.00;;;12.90;99.90;;;;;;5026753;28;20169;-69
2022/07/22 04:16:57;;;;;;;6.37;4.70;;;12.90;99.90;;;;;;5033722;28;20173;-66
2022/07/22 04:19:23;;;;;;;9.00;4.10;;;12.90;99.90;;;;;;5026412;28;20239;-67
2022/07/22 04:21:49;;;;;;;5.40;3.13;;;12.90;99.90;;;;;;5027320;28;20496;-68
2022/07/22 04:24:14;;;;;;;7.47;3.47;;;12.90;99.90;;;;;;5027266;28;20303;-67
2022/07/22 04:26:40;;;;;;;3.97;3.60;;;12.90;99.90;;;;;;5025499;28;20169;-76
2022/07/22 04:29:06;;;;;;;11.77;4.50;;;12.90;99.90;;;;;;5036030;28;20208;-68
2022/07/22 04:31:32;;;;;;;11.90;5.20;;;12.90;99.90;;;;;;5025273;28;20595;-67
2022/07/22 04:33:58;;;;;;;5.27;4.23;;;13.00;99.90;;;;;;5033217;28;20533;-67
2022/07/22 04:36:24;;;;;;;8.40;4.20;;;13.00;99.90;;;;;;5036123;28;20580;-68
2022/07/22 04:38:50;;;;;;;8.53;3.50;;;13.00;99.90;;;;;;5025239;28;20176;-67
2022/07/22 04:41:17;;;;;;;5.57;3.40;;;13.10;99.90;;;;;;5026882;28;20263;-68
2022/07/22 04:43:42;;;;;;;10.30;4.03;;;13.20;99.90;;;;;;5025660;28;20181;-68
2022/07/22 04:46:08;;;;;;;7.50;4.33;;;13.20;99.90;;;;;;5035843;28;20173;-67
2022/07/22 04:48:34;;;;;;;5.43;3.27;;;13.30;99.90;;;;;;5035566;28;20201;-67
2022/07/22 04:51:01;;;;;;;8.03;4.63;;;13.30;99.90;;;;;;5035781;28;20595;-68
2022/07/22 04:53:27;;;;;;;8.43;4.77;;;13.30;99.90;;;;;;5025802;28;20188;-68
2022/07/22 04:55:53;;;;;;;9.70;4.97;;;13.50;99.90;;;;;;5025359;28;20581;-67
2022/07/22 04:58:19;;;;;;;6.87;3.90;;;13.50;99.90;;;;;;5024700;28;20173;-67
2022/07/22 05:00:46;;;;;;;7.07;4.37;;;13.60;99.90;;;;;;5035631;28;20480;-67
2022/07/22 05:03:12;;;;;;;10.10;6.47;;;13.60;99.90;;;;;;5035189;28;20196;-67
2022/07/22 05:05:38;;;;;;;6.37;4.53;;;13.60;99.90;;;;;;5024411;28;20177;-67
2022/07/22 05:08:04;;;;;;;7.13;5.50;;;13.50;99.90;;;;;;5026276;28;20249;-70
2022/07/22 05:10:31;;;;;;;9.77;5.83;;;13.50;99.90;;;;;;5025412;28;20482;-68
2022/07/22 05:12:57;;;;;;;11.80;4.73;;;13.50;99.90;;;;;;5035477;28;20695;-67
2022/07/22 05:15:23;;;;;;;11.43;6.33;;;13.50;99.90;;;;;;5026234;28;20251;-70
2022/07/22 05:17:49;;;;;;;11.10;5.60;;;13.50;99.90;;;;;;5024644;28;20274;-69
2022/07/22 05:20:16;;;;;;;7.73;6.07;;;13.60;99.90;;;;;;5035590;28;20192;-69
2022/07/22 05:22:43;;;;;;;9.53;5.90;;;13.60;99.90;;;;;;5032502;28;20180;-67
2022/07/22 05:25:08;;;;;;;10.10;5.07;;;13.70;99.90;;;;;;5035074;28;20175;-71
2022/07/22 05:27:34;;;;;;;8.23;5.30;;;13.80;99.90;;;;;;5034198;28;20191;-71
2022/07/22 05:30:00;;;;;;;10.83;4.90;;;13.70;99.90;;;;;;5026652;28;20201;-70
2022/07/22 05:32:26;;;;;;;9.13;4.63;;;13.70;99.90;;;;;;5034938;28;20179;-67
2022/07/22 05:34:51;;;;;;;12.63;5.80;;;13.80;99.90;;;;;;5035244;28;20247;-68
2022/07/22 05:37:17;;;;;;;8.93;6.30;;;13.80;99.90;;;;;;5024236;28;20492;-70
2022/07/22 05:39:44;;;;;;;12.17;6.03;;;13.80;99.90;;;;;;5025746;28;20191;-66
2022/07/22 05:42:10;;;;;;;14.60;6.50;;;13.80;99.90;;;;;;5026101;28;20188;-70
2022/07/22 05:44:36;;;;;;;8.37;5.33;;;13.60;99.90;;;;;;5032103;28;20220;-69
2022/07/22 05:47:01;;;;;;;11.80;6.27;;;13.40;99.90;;;;;;5033991;28;20184;-69
2022/07/22 05:49:27;;;;;;;16.03;6.63;;;8.60;99.90;;;;;;5031808;28;20612;-70
2022/07/22 05:51:53;;;;;;;8.37;6.50;;;9.40;99.90;;;;;;5034470;28;20598;-72
2022/07/22 05:54:20;;;;;;;12.53;7.63;;;10.40;99.90;;;;;;5038480;28;20177;-69
2022/07/22 05:56:45;;;;;;;14.67;8.03;;;7.10;99.90;;;;;;5038172;28;20615;-70
2022/07/22 05:59:11;;;;;;;6.83;5.90;;;-9.70;99.90;;;;;;5037635;28;20181;-68
2022/07/22 06:01:37;;;;;;;12.80;7.10;;;-9.20;99.90;;;;;;5040927;28;20184;-70
2022/07/22 06:04:03;;;;;;;13.97;6.70;;;-11.60;99.90;;;;;;5038360;28;20184;-70
2022/07/22 06:06:29;;;;;;;12.63;8.60;;;-13.50;99.90;;;;;;5039341;28;20256;-70
2022/07/22 06:08:55;;;;;;;21.73;8.13;;;-12.40;99.90;;;;;;5039320;28;20296;-69
2022/07/22 06:11:21;;;;;;;12.07;8.47;;;-12.40;99.90;;;;;;5038163;28;20593;-69
2022/07/22 06:13:46;;;;;;;11.93;8.43;;;-12.80;99.90;;;;;;5038030;28;20230;-70
2022/07/22 06:16:12;;;;;;;17.87;8.77;;;-13.20;99.90;;;;;;5036906;28;20239;-69
2022/07/22 06:18:38;;;;;;;15.00;7.30;;;-15.40;99.90;;;;;;5038494;28;20204;-69
2022/07/22 06:21:04;;;;;;;11.40;7.97;;;-16.80;99.90;;;;;;5027736;28;20184;-69
2022/07/22 06:23:30;;;;;;;14.73;8.20;;;-14.40;99.90;;;;;;5028548;28;20216;-69
2022/07/22 06:25:56;;;;;;;15.30;7.70;;;-13.60;99.90;;;;;;5028959;28;20213;-69
2022/07/22 06:28:22;;;;;;;15.03;7.63;;;-15.70;99.90;;;;;;5027366;28;20193;-69
2022/07/22 06:30:47;;;;;;;17.47;7.87;;;-14.00;99.90;;;;;;5029372;28;20173;-70
2022/07/22 06:33:13;;;;;;;8.73;5.77;;;-15.60;99.90;;;;;;5028436;28;20181;-70
2022/07/22 06:35:40;;;;;;;10.70;6.07;;;-16.70;99.90;;;;;;5027716;28;20180;-70
2022/07/22 06:38:06;;;;;;;11.37;6.20;;;-15.90;99.90;;;;;;5029144;28;20488;-70
2022/07/22 06:40:33;;;;;;;7.83;5.70;;;-15.30;99.90;;;;;;5027888;28;20189;-70
2022/07/22 06:42:59;;;;;;;6.63;4.50;;;-15.60;99.90;;;;;;5038089;28;20766;-70
2022/07/22 06:45:24;;;;;;;11.87;5.43;;;-14.50;99.90;;;;;;5037984;28;20203;-69
2022/07/22 06:47:50;;;;;;;8.67;5.10;;;-12.30;99.90;;;;;;5037710;28;20232;-71
2022/07/22 06:50:16;;;;;;;8.70;4.07;;;-12.00;99.90;;;;;;5033351;28;20180;-72
2022/07/22 06:52:43;;;;;;;6.50;4.50;;;-12.40;99.90;;;;;;5035210;28;20183;-74
2022/07/22 06:55:09;;;;;;;11.37;5.20;;;-12.10;99.90;;;;;;5036164;28;20168;-69
2022/07/22 06:57:34;;;;;;;18.20;4.40;;;-19.60;99.90;;;;;;5036240;28;20231;-68
2022/07/22 07:00:01;;;;;;;5.03;4.07;;;-11.20;99.90;;;;;;5036714;28;20592;-71
2022/07/22 07:02:26;;;;;;;8.63;3.83;;;-15.70;99.90;;;;;;5036115;28;20620;-67
2022/07/22 07:04:52;;;;;;;11.00;4.33;;;-18.40;99.90;;;;;;5036567;28;20172;-68
2022/07/22 07:07:18;;;;;;;18.17;5.27;;;-17.60;99.90;;;;;;5036288;28;20541;-73
2022/07/22 07:09:44;;;;;;;4.60;2.90;;;-17.50;99.90;;;;;;5036092;28;20604;-69
2022/07/22 07:12:09;;;;;;;7.60;4.93;;;-22.70;99.90;;;;;;5036441;28;20255;-73
2022/07/22 07:14:35;;;;;;;5.80;3.27;;;-21.20;99.90;;;;;;5032105;28;20180;-70
2022/07/22 07:17:01;;;;;;;10.53;3.97;;;-21.30;99.90;;;;;;5026546;28;20169;-72
2022/07/22 07:19:45;;;;;;;6.40;4.00;;;-14.30;99.90;;;;;;5024425;28;20688;-73
2022/07/22 07:22:11;;;;;;;5.57;3.63;;;-22.80;99.90;;;;;;5032970;28;20207;-74
2022/07/22 07:24:36;;;;;;;6.70;3.80;;;-23.10;99.90;;;;;;5034636;28;20181;-68
2022/07/22 07:27:02;;;;;;;7.70;4.37;;;-20.30;99.90;;;;;;5037398;28;20184;-70
2022/07/22 07:29:28;;;;;;;4.63;3.27;;;-17.30;99.90;;;;;;5035143;28;20200;-69
2022/07/22 07:31:54;;;;;;;4.93;3.17;;;-19.00;99.90;;;;;;5036380;28;20216;-67
2022/07/22 07:34:20;;;;;;;3.53;3.33;;;-17.60;99.90;;;;;;5035643;28;20588;-69
2022/07/22 07:36:45;;;;;;;5.13;3.97;;;-19.10;99.90;;;;;;5036955;28;20181;-68
2022/07/22 07:44:22;;;;;;;4.10;3.70;;;-25.50;99.90;;;;;;5030334;22;20228;-71
2022/07/22 07:46:48;;;;;;;4.47;4.03;;;-19.20;99.90;;;;;;5007727;28;20178;-74
2022/07/22 07:49:14;;;;;;;7.27;3.97;;;-23.20;99.90;;;;;;5015030;28;20193;-70
2022/07/22 07:51:39;;;;;;;7.80;3.37;;;-27.10;99.90;;;;;;5009268;28;20574;-72
2022/07/22 07:54:05;;;;;;;6.33;4.40;;;-22.70;99.90;;;;;;5006293;28;20180;-71
2022/07/22 07:56:31;;;;;;;5.57;3.07;;;-26.70;99.90;;;;;;5008682;28;20182;-73
2022/07/22 07:58:56;;;;;;;5.60;3.47;;;-21.70;99.90;;;;;;5014477;28;20234;-72
2022/07/22 08:01:23;;;;;;;8.83;3.63;;;-23.00;99.90;;;;;;5010159;28;20192;-70
2022/07/22 08:03:48;;;;;;;5.23;3.27;;;-23.20;99.90;;;;;;5009734;28;20536;-71
2022/07/22 08:06:14;;;;;;;6.37;3.30;;;-16.90;99.90;;;;;;4997916;28;20174;-71
2022/07/22 08:08:40;;;;;;;4.77;3.03;;;-19.50;99.90;;;;;;5015182;28;20646;-72
2022/07/22 08:11:06;;;;;;;3.87;3.40;;;-15.10;99.90;;;;;;5004149;28;20676;-75
2022/07/22 08:13:32;;;;;;;9.67;3.57;;;-15.20;99.90;;;;;;5008278;28;20182;-72
2022/07/22 08:15:58;;;;;;;7.17;4.00;;;-13.60;99.90;;;;;;5015014;28;20178;-72
2022/07/22 08:18:24;;;;;;;3.40;3.10;;;18.80;99.90;;;;;;5014418;28;20176;-73
2022/07/22 08:20:50;;;;;;;6.73;3.97;;;18.80;99.90;;;;;;5014985;28;20576;-72
2022/07/22 08:23:16;;;;;;;3.87;3.40;;;18.70;99.90;;;;;;5015016;28;20165;-71
2022/07/22 08:25:42;;;;;;;7.80;3.70;;;18.60;99.90;;;;;;5015122;28;20185;-71
2022/07/22 08:28:07;;;;;;;11.13;4.40;;;18.80;99.90;;;;;;5015093;28;20255;-70
2022/07/22 08:30:33;;;;;;;5.93;3.80;;;18.80;99.90;;;;;;5016821;28;20517;-70
2022/07/22 08:32:59;;;;;;;13.40;4.73;;;18.70;99.90;;;;;;5016670;28;20174;-71
2022/07/22 08:35:25;;;;;;;4.07;3.00;;;18.50;99.90;;;;;;5016670;28;20169;-72
2022/07/22 08:37:51;;;;;;;8.60;3.83;;;17.30;99.90;;;;;;5016301;28;20169;-70
2022/07/22 08:40:17;;;;;;;5.83;3.80;;;-40.00;94.30;;;;;;5015818;28;20242;-70
2022/07/22 08:42:45;;;;;;;7.43;4.10;;;-40.00;94.10;;;;;;5016488;28;20181;-70
2022/07/22 08:45:11;;;;;;;8.83;4.73;;;-40.00;94.00;;;;;;5015393;28;20225;-71
2022/07/22 08:47:43;;;;;;;6.43;3.43;;;-40.00;93.90;;;;;;5015135;28;20205;-71
2022/07/22 08:50:09;;;;;;;7.23;4.23;;;-40.00;93.80;;;;;;5010719;23;20182;-79
2022/07/22 08:52:34;;;;;;;5.60;5.10;;;-40.00;93.20;;;;;;5006450;28;20189;-69
2022/07/22 08:55:03;;;;;;;8.60;3.20;;;-40.00;92.90;;;;;;4998754;28;20233;-74
2022/07/22 08:57:29;;;;;;;25.27;4.97;;;-40.00;94.00;;;;;;4998262;28;20470;-74
2022/07/22 08:59:58;;;;;;;6.70;3.50;;;-40.00;93.30;;;;;;5009619;28;20292;-72
2022/07/22 09:02:25;;;;;;;4.93;3.97;;;-40.00;93.80;;;;;;5014981;28;20185;-75
2022/07/22 09:05:00;;;;;;;4.60;3.83;;;-40.00;93.90;;;;;;5014918;28;20491;-79
2022/07/22 09:07:31;;;;;;;7.27;4.93;;;-40.00;92.90;;;;;;4999150;28;20598;-74
2022/07/22 09:09:58;;;;;;;5.73;3.23;;;-40.00;92.80;;;;;;5003755;28;20244;-74
2022/07/22 09:12:27;;;;;;;6.87;3.83;;;-40.00;92.50;;;;;;5000159;28;20178;-75
2022/07/22 09:14:55;;;;;;;17.27;4.60;;;-40.00;92.00;;;;;;5002560;28;20601;-76
2022/07/22 09:20:17;;;;;;;7.30;4.00;;;-40.00;91.60;;;;;;5893558;22;20255;-69
2022/07/22 09:22:48;;;;;;;6.17;3.43;;;-40.00;90.40;;;;;;5004249;23;20539;-71
2022/07/22 09:25:26;;;;;;;4.10;3.70;;;-40.00;87.70;;;;;;5012912;28;20177;-69
2022/07/22 09:28:08;;;;;;;4.53;2.80;;;-40.00;90.40;;;;;;5014650;28;20300;-71
2022/07/22 09:30:36;;;;;;;5.47;3.53;;;-40.00;84.90;;;;;;5005187;28;20177;-70
2022/07/22 09:33:03;;;;;;;4.00;2.43;;;-40.00;87.20;;;;;;5013434;28;20192;-73
2022/07/22 09:35:29;;;;;;;3.80;3.10;;;-40.00;87.30;;;;;;5012940;28;20185;-68
2022/07/22 09:38:05;;;;;;;6.03;4.00;;;-40.00;89.70;;;;;;5013542;28;20263;-69
2022/07/22 09:40:34;;;;;;;2.97;2.60;;;-40.00;89.00;;;;;;5014196;28;20263;-70
2022/07/22 09:43:05;;;;;;;2.90;2.30;;;-40.00;89.50;;;;;;5013660;28;20207;-69
2022/07/22 09:45:33;;;;;;;3.57;2.30;;;-40.00;88.70;;;;;;5011924;28;20185;-69
2022/07/22 09:48:00;;;;;;;3.10;2.80;;;-40.00;89.00;;;;;;5014181;28;20239;-71
2022/07/22 09:50:33;;;;;;;3.40;2.53;;;-40.00;89.30;;;;;;5015120;28;20177;-69
2022/07/22 09:53:00;;;;;;;13.07;3.50;;;-40.00;88.40;;;;;;5013569;28;20241;-69
2022/07/22 09:55:28;;;;;;;3.37;2.60;;;-40.00;88.00;;;;;;5015296;28;20177;-69
2022/07/22 09:57:55;;;;;;;2.87;2.67;;;-40.00;87.00;;;;;;5014255;28;20494;-69
2022/07/22 10:00:26;;;;;;;6.13;2.70;;;-40.00;85.10;;;;;;5016163;28;20197;-69
2022/07/22 10:02:57;;;;;;;5.53;2.63;;;-40.00;82.10;;;;;;5015464;28;20256;-69
2022/07/22 10:05:26;;;;;;;4.37;2.10;;;-40.00;86.30;;;;;;5013482;28;20185;-69
2022/07/22 10:07:53;;;;;;;8.30;3.30;;;-40.00;87.40;;;;;;5012480;28;20557;-73
2022/07/22 10:10:24;;;;;;;4.77;2.17;;;-40.00;84.70;;;;;;5013759;28;20178;-70
2022/07/22 10:12:52;;;;;;;3.13;2.40;;;-40.00;84.40;;;;;;5013634;28;20473;-70
2022/07/22 10:15:19;;;;;;;2.20;2.00;;;-40.00;86.50;;;;;;5013636;28;20596;-70
2022/07/22 10:17:50;;;;;;;2.73;2.33;;;-40.00;87.00;;;;;;5013511;28;20189;-72
2022/07/22 10:20:21;;;;;;;3.37;3.00;;;-40.00;83.60;;;;;;5014740;28;20169;-69
2022/07/22 10:23:07;;;;;;;2.60;2.40;;;-40.00;83.40;;;;;;5028051;28;20212;-71
2022/07/22 10:25:56;;;;;;;6.13;3.07;;;-40.00;79.10;;;;;;5035167;28;20449;-69
2022/07/22 10:28:24;;;;;;;10.30;9.30;;;-40.00;79.80;;;;;;5034221;28;20201;-67
2022/07/22 10:30:51;;;;;;;8.23;7.40;;;-40.00;79.80;;;;;;5029140;28;20283;-67
2022/07/22 10:33:22;;;;;;;4.20;3.30;;;-40.00;77.60;;;;;;5032250;28;20169;-71
2022/07/22 10:36:01;;;;;;;9.67;8.43;;;-40.00;76.60;;;;;;5032180;28;20268;-72
2022/07/22 10:38:29;;;;;;;6.47;3.20;;;-40.00;76.60;;;;;;5036719;28;20181;-69
2022/07/22 10:40:58;;;;;;;8.97;4.93;;;-40.00;81.20;;;;;;5042131;28;20188;-71
2022/07/22 10:43:30;;;;;;;4.43;3.60;;;-40.00;80.70;;;;;;5032376;28;20267;-72
2022/07/22 10:46:02;;;;;;;3.07;2.00;;;-40.00;77.80;;;;;;5038051;28;20570;-69
2022/07/22 10:48:37;;;;;;;9.10;4.67;;;-40.00;74.90;;;;;;5037730;28;20200;-71
2022/07/22 10:51:13;;;;;;;6.20;4.20;;;-40.00;79.30;;;;;;5037137;28;20172;-71
2022/07/22 10:53:59;;;;;;;3.20;2.90;;;-40.00;77.20;;;;;;5018778;28;20211;-70
2022/07/22 10:56:26;;;;;;;5.43;3.77;;;-40.00;76.20;;;;;;5018445;28;20161;-71
2022/07/22 10:59:16;;;;;;;5.63;3.13;;;-40.00;79.80;;;;;;5018036;28;20199;-65
2022/07/22 11:01:47;;;;;;;3.17;2.73;;;-40.00;75.30;;;;;;5033587;28;20212;-70
2022/07/22 11:04:17;;;;;;;6.07;3.90;;;-40.00;73.80;;;;;;5037530;28;20177;-70
2022/07/22 11:06:43;;;;;;;5.57;3.90;;;-40.00;75.20;;;;;;5038026;28;20161;-73
2022/07/22 11:09:12;;;;;;;2.90;2.70;;;-40.00;76.90;;;;;;5037981;28;20599;-72
2022/07/22 11:11:53;;;;;;;3.83;2.93;;;-40.00;73.00;;;;;;5037797;28;20210;-70
2022/07/22 11:14:31;;;;;;;1.97;1.87;;;-40.00;73.80;;;;;;5038021;28;20192;-70
2022/07/22 11:16:59;;;;;;;3.13;2.73;;;-40.00;72.20;;;;;;5037667;28;20173;-70
2022/07/22 11:19:28;;;;;;;6.57;3.37;;;-40.00;72.80;;;;;;5037749;28;20251;-70
2022/07/22 11:21:57;;;;;;;6.50;3.03;;;-40.00;72.80;;;;;;5037382;28;20495;-71
2022/07/22 11:24:25;;;;;;;4.03;2.73;;;-40.00;68.90;;;;;;5036430;28;20258;-72
2022/07/22 11:26:53;;;;;;;3.87;3.33;;;-40.00;71.60;;;;;;5037460;28;20188;-71
2022/07/22 11:29:35;;;;;;;3.83;2.40;;;-40.00;71.60;;;;;;5037418;28;20666;-72
2022/07/22 11:32:04;;;;;;;4.50;2.90;;;-40.00;68.60;;;;;;5037406;28;20184;-70
2022/07/22 11:34:30;;;;;;;3.40;3.10;;;-40.00;73.40;;;;;;5037103;28;20165;-71
2022/07/22 11:36:57;;;;;;;4.13;3.27;;;-40.00;72.80;;;;;;5037015;28;20215;-70
2022/07/22 11:39:29;;;;;;;3.57;3.27;;;-40.00;68.90;;;;;;5037273;28;20603;-69
2022/07/22 11:41:57;;;;;;;4.43;2.67;;;-40.00;70.70;;;;;;5037313;28;20169;-71
2022/07/22 11:44:25;;;;;;;2.63;2.17;;;-40.00;70.80;;;;;;5036866;28;20254;-71
2022/07/22 11:46:52;;;;;;;6.40;3.27;;;-40.00;69.00;;;;;;5036030;28;20180;-71
2022/07/22 11:49:20;;;;;;;3.50;3.10;;;-40.00;68.20;;;;;;5036356;28;20334;-69
2022/07/22 11:51:47;;;;;;;5.53;4.10;;;-40.00;67.80;;;;;;5036182;28;20191;-69
2022/07/22 11:54:13;;;;;;;2.50;2.30;;;-40.00;70.40;;;;;;5036663;28;20240;-70
2022/07/22 11:56:39;;;;;;;3.70;2.70;;;-40.00;70.60;;;;;;5037585;28;20208;-70
2022/07/22 11:59:06;;;;;;;3.67;3.00;;;-40.00;71.80;;;;;;5028421;28;20213;-70
2022/07/22 12:01:35;;;;;;;3.23;2.93;;;-40.00;72.10;;;;;;5016375;28;20220;-68
2022/07/22 12:04:09;;;;;;;3.83;2.63;;;-40.00;72.00;;;;;;5017228;28;20181;-69
2022/07/22 12:06:38;;;;;;;3.97;3.10;;;-40.00;65.40;;;;;;5017175;28;20224;-72
2022/07/22 12:09:15;;;;;;;2.97;2.20;;;-40.00;68.60;;;;;;5017156;28;20309;-68
2022/07/22 12:11:44;;;;;;;3.10;2.80;;;-40.00;67.10;;;;;;5049112;28;20260;-70
2022/07/22 12:14:21;;;;;;;3.23;3.03;;;-40.00;68.10;;;;;;5031307;28;20579;-69
2022/07/22 12:17:14;;;;;;;3.03;2.73;;;-40.00;67.20;;;;;;5036206;28;20223;-69
2022/07/22 12:19:41;;;;;;;4.07;3.03;;;-40.00;64.90;;;;;;5034388;28;20184;-70
2022/07/22 12:22:13;;;;;;;3.87;3.43;;;-40.00;61.50;;;;;;5036422;28;20212;-70
2022/07/22 12:24:43;;;;;;;3.00;2.70;;;-40.00;61.50;;;;;;5036143;28;20231;-70
2022/07/22 12:27:15;;;;;;;8.70;4.27;;;-40.00;59.50;;;;;;5036799;28;20184;-67
2022/07/22 12:29:45;;;;;;;3.50;3.20;;;-40.00;63.10;;;;;;5036261;28;20173;-70
2022/07/22 12:32:31;;;;;;;4.47;3.77;;;-40.00;65.70;;;;;;5036463;28;20215;-71
2022/07/22 12:35:01;;;;;;;3.77;3.47;;;-40.00;65.30;;;;;;5035504;28;20271;-71
2022/07/22 12:37:32;;;;;;;3.63;2.50;;;-40.00;68.60;;;;;;5036440;28;20165;-70
2022/07/22 12:40:04;;;;;;;3.80;3.30;;;-40.00;68.10;;;;;;5036174;28;20172;-71
2022/07/22 12:42:35;;;;;;;6.83;3.17;;;-40.00;69.50;;;;;;5036313;28;20168;-70
2022/07/22 12:45:06;;;;;;;3.40;3.20;;;-40.00;68.80;;;;;;5035650;28;20188;-72
2022/07/22 12:47:45;;;;;;;9.40;3.50;;;-40.00;69.90;;;;;;5036219;28;20173;-70